Time;durP1;ratioP1;P1;durP2;ratioP2;P2;SDS_P1;SDS_P2;PMS_P1;PMS_P2;Temp;Humidity;BMP_temperature;BMP_pressure;BME280_temperature;BME280_humidity;BME280_pressure;Samples;Min_cycle;Max_cycle;Signal;HPM_P1;HPM_P2
2023/05/29 00:00:47;;;;;;;13.73;4.72;;;10.20;99.90;;;;;;5156219;27;20039;-74
2023/05/29 00:03:13;;;;;;;16.45;5.75;;;10.20;99.90;;;;;;5155589;27;20043;-74
2023/05/29 00:05:38;;;;;;;14.65;4.93;;;10.20;99.90;;;;;;5156113;27;20082;-73
2023/05/29 00:08:05;;;;;;;11.57;5.00;;;10.20;99.90;;;;;;5155672;27;20061;-73
2023/05/29 00:10:31;;;;;;;13.20;4.65;;;10.20;99.90;;;;;;5155506;27;20058;-73
2023/05/29 00:12:57;;;;;;;10.48;4.25;;;10.20;99.90;;;;;;5103268;27;20047;-73
2023/05/29 00:15:23;;;;;;;8.50;3.95;;;10.20;99.90;;;;;;5137092;27;20043;-73
2023/05/29 00:17:49;;;;;;;10.18;3.92;;;10.20;99.90;;;;;;5136570;27;20479;-73
2023/05/29 00:20:15;;;;;;;8.45;3.97;;;10.20;99.90;;;;;;5137102;27;20118;-72
2023/05/29 00:22:41;;;;;;;11.57;3.97;;;10.20;99.90;;;;;;5137530;27;20039;-72
2023/05/29 00:25:08;;;;;;;10.05;4.72;;;10.10;99.90;;;;;;5136974;27;20455;-72
2023/05/29 00:27:34;;;;;;;12.80;4.60;;;10.10;99.90;;;;;;5136989;27;20087;-72
2023/05/29 00:30:01;;;;;;;10.82;4.00;;;10.10;99.90;;;;;;5155104;27;20078;-72
2023/05/29 00:32:27;;;;;;;9.43;3.78;;;10.10;99.90;;;;;;5155106;27;20459;-73
2023/05/29 00:34:53;;;;;;;9.13;3.97;;;10.10;99.90;;;;;;5155257;27;20046;-73
2023/05/29 00:37:23;;;;;;;8.80;4.00;;;10.00;99.90;;;;;;5155305;27;20091;-73
2023/05/29 00:39:49;;;;;;;11.55;4.30;;;10.00;99.90;;;;;;5155200;27;20046;-72
2023/05/29 00:42:15;;;;;;;10.20;4.50;;;10.00;99.90;;;;;;5155261;27;20062;-73
2023/05/29 00:44:41;;;;;;;20.42;5.43;;;9.90;99.90;;;;;;5153935;27;20043;-72
2023/05/29 00:47:07;;;;;;;14.50;4.30;;;10.00;99.90;;;;;;5154826;27;20039;-73
2023/05/29 00:49:34;;;;;;;13.25;4.20;;;9.90;99.90;;;;;;5155109;27;20099;-73
2023/05/29 00:52:00;;;;;;;11.32;4.68;;;9.90;99.90;;;;;;5136828;27;20342;-73
2023/05/29 00:54:29;;;;;;;14.18;5.15;;;9.90;99.90;;;;;;5155094;27;20131;-73
2023/05/29 00:56:57;;;;;;;5.95;3.60;;;9.90;99.90;;;;;;5154736;27;20054;-73
2023/05/29 00:59:23;;;;;;;14.65;4.97;;;9.80;99.90;;;;;;5154692;27;20467;-72
2023/05/29 01:01:50;;;;;;;13.70;4.65;;;9.90;99.90;;;;;;5154711;27;20479;-73
2023/05/29 01:04:17;;;;;;;16.38;5.75;;;9.90;99.90;;;;;;5154578;27;20134;-73
2023/05/29 01:06:43;;;;;;;12.80;4.50;;;9.90;99.90;;;;;;5154054;27;20046;-73
2023/05/29 01:09:10;;;;;;;16.65;4.57;;;9.90;99.90;;;;;;5155024;27;20076;-73
2023/05/29 01:11:57;;;;;;;12.98;4.07;;;9.80;99.90;;;;;;5154552;27;20128;-73
2023/05/29 01:14:40;;;;;;;7.22;3.40;;;9.90;99.90;;;;;;5138099;27;20055;-73
2023/05/29 01:17:26;;;;;;;8.75;4.22;;;9.90;99.90;;;;;;5155999;27;20088;-73
2023/05/29 01:20:09;;;;;;;16.58;4.88;;;9.90;99.90;;;;;;5155202;27;20082;-73
2023/05/29 01:22:40;;;;;;;;;;;9.90;99.90;;;;;;5155260;27;20459;-74
2023/05/29 01:25:51;;;;;;;8.77;4.05;;;9.80;99.90;;;;;;5154615;27;20381;-73
2023/05/29 01:28:21;;;;;;;17.17;4.65;;;9.80;99.90;;;;;;5154743;27;20105;-73
2023/05/29 01:30:49;;;;;;;17.98;5.00;;;9.90;99.90;;;;;;5154759;27;20084;-73
2023/05/29 01:33:15;;;;;;;12.85;6.07;;;9.90;99.90;;;;;;5154649;27;20049;-73
2023/05/29 01:35:40;;;;;;;13.23;4.45;;;10.90;99.90;;;;;;5135996;27;20122;-73
2023/05/29 01:38:06;;;;;;;12.50;4.40;;;9.90;99.90;;;;;;5154239;27;20514;-73
2023/05/29 01:40:32;;;;;;;11.77;3.85;;;9.90;99.90;;;;;;5154709;27;20430;-73
2023/05/29 01:42:57;;;;;;;15.00;4.75;;;9.90;99.90;;;;;;5153652;27;20062;-73
2023/05/29 01:45:23;;;;;;;11.55;5.22;;;9.90;99.90;;;;;;5154114;27;20095;-73
2023/05/29 01:47:50;;;;;;;11.90;4.70;;;9.90;99.90;;;;;;5154058;27;20047;-73
2023/05/29 01:50:18;;;;;;;11.40;5.43;;;9.90;99.90;;;;;;5154520;27;20046;-73
2023/05/29 01:52:44;;;;;;;11.02;4.78;;;9.90;99.90;;;;;;5154009;27;20484;-73
2023/05/29 01:55:09;;;;;;;8.85;4.20;;;9.90;99.90;;;;;;5153807;27;20054;-73
2023/05/29 01:57:36;;;;;;;10.57;4.80;;;9.90;99.90;;;;;;5157674;27;20046;-73
2023/05/29 02:00:08;;;;;;;12.07;4.82;;;9.80;99.90;;;;;;5158114;27;20038;-73
2023/05/29 02:02:40;;;;;;;10.93;4.00;;;9.80;99.90;;;;;;5158621;27;20452;-72
2023/05/29 02:05:07;;;;;;;19.08;5.47;;;9.80;99.90;;;;;;5139946;27;20333;-74
2023/05/29 02:07:34;;;;;;;13.25;4.45;;;9.80;99.90;;;;;;5139587;27;20038;-73
2023/05/29 02:10:00;;;;;;;9.30;4.88;;;9.70;99.90;;;;;;5158079;27;20065;-74
2023/05/29 02:12:26;;;;;;;12.20;4.25;;;9.70;99.90;;;;;;5158222;27;20043;-74
2023/05/29 02:14:51;;;;;;;14.43;4.97;;;9.70;99.90;;;;;;5158120;27;20113;-73
2023/05/29 02:17:19;;;;;;;13.60;5.18;;;9.70;99.90;;;;;;5157552;27;20370;-74
2023/05/29 02:19:44;;;;;;;13.38;4.35;;;9.70;99.90;;;;;;5158393;27;20468;-73
2023/05/29 02:22:10;;;;;;;8.68;3.95;;;9.60;99.90;;;;;;5123064;27;20082;-73
2023/05/29 02:24:36;;;;;;;18.98;5.00;;;9.60;99.90;;;;;;5157598;27;20081;-73
2023/05/29 02:27:03;;;;;;;15.70;4.57;;;9.60;99.90;;;;;;5157655;27;20211;-73
2023/05/29 02:29:28;;;;;;;15.52;4.75;;;9.60;99.90;;;;;;5139791;27;20046;-73
2023/05/29 02:31:54;;;;;;;15.23;5.32;;;9.60;99.90;;;;;;5157112;27;20475;-74
2023/05/29 02:34:22;;;;;;;17.70;4.78;;;9.60;99.90;;;;;;5157430;27;20054;-73
2023/05/29 02:36:49;;;;;;;14.45;4.53;;;9.60;99.90;;;;;;5157537;27;20054;-74
2023/05/29 02:39:14;;;;;;;16.13;5.55;;;9.50;99.90;;;;;;5139633;27;20117;-73
2023/05/29 02:41:40;;;;;;;11.93;4.75;;;9.50;99.90;;;;;;5157219;27;20533;-73
2023/05/29 02:44:06;;;;;;;10.60;4.47;;;9.50;99.90;;;;;;5157181;27;20061;-73
2023/05/29 02:46:31;;;;;;;8.70;4.07;;;9.50;99.90;;;;;;5157715;27;20091;-73
2023/05/29 02:48:57;;;;;;;13.02;5.07;;;9.50;99.90;;;;;;5157773;27;20076;-72
2023/05/29 02:51:22;;;;;;;11.57;4.63;;;9.40;99.90;;;;;;5157591;27;20039;-73
2023/05/29 02:53:48;;;;;;;12.90;5.10;;;9.50;99.90;;;;;;5139031;27;20070;-72
2023/05/29 02:56:15;;;;;;;11.32;4.60;;;9.40;99.90;;;;;;5157333;27;20073;-72
2023/05/29 02:58:41;;;;;;;10.35;4.93;;;9.40;99.90;;;;;;5157084;27;20059;-73
2023/05/29 03:01:07;;;;;;;9.20;3.97;;;9.40;99.90;;;;;;5121509;27;20082;-73
2023/05/29 03:03:33;;;;;;;13.20;5.05;;;9.40;99.90;;;;;;5157438;27;20074;-73
2023/05/29 03:06:00;;;;;;;9.02;4.20;;;9.40;99.90;;;;;;5156830;27;20052;-73
2023/05/29 03:08:27;;;;;;;8.13;4.03;;;9.30;99.90;;;;;;5138338;27;20073;-73
2023/05/29 03:10:53;;;;;;;12.27;4.57;;;9.30;99.90;;;;;;5139012;27;20050;-73
2023/05/29 03:13:18;;;;;;;10.75;4.20;;;9.30;99.90;;;;;;5156767;27;20039;-73
2023/05/29 03:15:44;;;;;;;8.50;4.03;;;9.40;99.90;;;;;;5157059;27;20042;-73
2023/05/29 03:18:10;;;;;;;7.90;3.83;;;9.40;99.90;;;;;;5156846;27;20039;-72
2023/05/29 03:20:36;;;;;;;9.90;4.03;;;9.40;99.90;;;;;;5156944;27;20464;-72
2023/05/29 03:23:02;;;;;;;12.23;5.72;;;9.40;99.90;;;;;;5156788;27;20055;-73
2023/05/29 03:25:27;;;;;;;9.02;4.90;;;9.40;99.90;;;;;;5156988;27;20089;-73
2023/05/29 03:27:53;;;;;;;20.75;5.20;;;9.30;99.90;;;;;;5156585;27;20130;-73
2023/05/29 03:30:20;;;;;;;12.02;4.30;;;9.40;99.90;;;;;;5138187;27;20050;-74
2023/05/29 03:32:46;;;;;;;8.48;3.63;;;9.40;99.90;;;;;;5156385;27;20047;-73
2023/05/29 03:35:11;;;;;;;7.45;3.38;;;9.50;99.90;;;;;;5156373;27;20046;-73
2023/05/29 03:37:37;;;;;;;10.02;3.95;;;9.50;99.90;;;;;;5156606;27;20465;-73
2023/05/29 03:40:04;;;;;;;18.75;5.47;;;9.50;99.90;;;;;;5156179;27;20042;-74
2023/05/29 03:42:31;;;;;;;10.68;4.47;;;9.50;99.90;;;;;;5137643;27;20111;-73
2023/05/29 03:44:57;;;;;;;10.98;4.97;;;9.60;99.90;;;;;;5156155;27;20042;-73
2023/05/29 03:47:22;;;;;;;9.48;4.40;;;9.60;99.90;;;;;;5156106;27;20047;-72
2023/05/29 03:49:48;;;;;;;11.30;4.05;;;9.60;99.90;;;;;;5156359;27;20471;-72
2023/05/29 03:52:14;;;;;;;14.02;4.43;;;9.70;99.90;;;;;;5155939;27;20042;-72
2023/05/29 03:54:40;;;;;;;9.88;4.70;;;9.70;99.90;;;;;;5137395;27;20492;-73
2023/05/29 03:57:06;;;;;;;10.60;4.22;;;9.80;99.90;;;;;;5156328;27;20043;-73
2023/05/29 03:59:32;;;;;;;14.02;4.53;;;9.80;99.90;;;;;;5155575;27;20445;-73
2023/05/29 04:01:58;;;;;;;14.63;3.97;;;9.80;99.90;;;;;;5155859;27;20075;-72
2023/05/29 04:04:24;;;;;;;12.80;4.65;;;9.90;99.90;;;;;;5156466;27;20047;-72
2023/05/29 04:06:50;;;;;;;10.48;4.95;;;9.90;99.90;;;;;;5155883;27;20085;-72
2023/05/29 04:09:15;;;;;;;9.10;3.95;;;10.00;99.90;;;;;;5155761;27;20039;-72
2023/05/29 04:11:44;;;;;;;10.05;4.53;;;10.00;99.90;;;;;;5137695;27;20042;-73
2023/05/29 04:14:10;;;;;;;9.30;4.00;;;10.10;99.90;;;;;;5155607;27;20042;-72
2023/05/29 04:16:35;;;;;;;11.95;4.22;;;10.10;99.90;;;;;;5155527;27;20043;-72
2023/05/29 04:19:01;;;;;;;7.20;3.88;;;10.10;99.90;;;;;;5137448;27;20076;-73
2023/05/29 04:21:27;;;;;;;11.35;4.43;;;10.10;99.90;;;;;;5155825;27;20066;-73
2023/05/29 04:23:53;;;;;;;11.85;3.83;;;10.70;99.90;;;;;;5137211;27;20047;-73
2023/05/29 04:26:24;;;;;;;11.40;4.07;;;10.20;99.90;;;;;;5155233;27;20038;-74
2023/05/29 04:28:56;;;;;;;13.45;4.30;;;10.20;99.90;;;;;;5155417;27;20111;-72
2023/05/29 04:31:24;;;;;;;12.20;4.85;;;10.20;99.90;;;;;;5156443;27;20045;-73
2023/05/29 04:33:54;;;;;;;10.00;4.10;;;10.30;99.90;;;;;;5156837;27;20046;-73
2023/05/29 04:36:27;;;;;;;10.18;4.30;;;10.30;99.90;;;;;;5121357;27;20053;-73
2023/05/29 04:38:54;;;;;;;10.75;4.22;;;10.40;99.90;;;;;;5156436;27;20053;-72
2023/05/29 04:41:23;;;;;;;9.93;4.43;;;10.40;99.90;;;;;;5155152;27;20078;-73
2023/05/29 04:43:50;;;;;;;11.98;4.50;;;10.50;99.90;;;;;;5155317;27;20042;-73
2023/05/29 04:46:17;;;;;;;9.75;4.38;;;10.60;99.90;;;;;;5155154;27;20047;-73
2023/05/29 04:48:43;;;;;;;15.10;3.78;;;10.60;99.90;;;;;;5155622;27;20092;-73
2023/05/29 04:51:10;;;;;;;5.95;3.40;;;10.70;99.90;;;;;;5154825;27;20097;-73
2023/05/29 04:53:40;;;;;;;10.80;3.80;;;10.70;99.90;;;;;;5155026;27;20472;-73
2023/05/29 04:56:05;;;;;;;9.70;3.80;;;10.80;99.90;;;;;;5136647;27;20414;-73
2023/05/29 04:58:31;;;;;;;11.18;4.15;;;10.70;99.90;;;;;;5154872;27;20046;-73
2023/05/29 05:00:59;;;;;;;11.98;4.07;;;10.80;99.90;;;;;;5154538;27;20038;-73
2023/05/29 05:03:25;;;;;;;10.07;4.35;;;10.80;99.90;;;;;;5155170;27;20039;-74
2023/05/29 05:05:52;;;;;;;10.73;4.20;;;10.80;99.90;;;;;;5135842;27;20042;-72
2023/05/29 05:08:18;;;;;;;11.63;4.18;;;10.80;99.90;;;;;;5154620;27;20043;-72
2023/05/29 05:10:43;;;;;;;12.07;3.97;;;10.90;99.90;;;;;;5154416;27;20129;-72
2023/05/29 05:13:11;;;;;;;11.63;4.13;;;10.90;99.90;;;;;;5136336;27;20103;-72
2023/05/29 05:15:36;;;;;;;8.27;4.32;;;11.00;99.90;;;;;;5154541;27;20058;-71
2023/05/29 05:18:02;;;;;;;11.75;3.88;;;11.00;99.90;;;;;;5154046;27;20105;-72
2023/05/29 05:20:28;;;;;;;10.60;4.30;;;11.00;99.90;;;;;;5154908;27;20129;-74
2023/05/29 05:22:53;;;;;;;8.70;4.65;;;11.10;99.90;;;;;;5154373;27;20120;-73
2023/05/29 05:25:19;;;;;;;9.82;4.38;;;11.10;99.90;;;;;;5154878;27;20499;-73
2023/05/29 05:27:45;;;;;;;10.80;4.30;;;11.20;99.90;;;;;;5154902;27;20092;-72
2023/05/29 05:30:11;;;;;;;11.38;4.75;;;11.20;99.90;;;;;;5154066;27;20094;-73
2023/05/29 05:32:37;;;;;;;8.27;4.25;;;11.20;99.90;;;;;;5153890;27;20046;-72
2023/05/29 05:35:03;;;;;;;9.18;4.35;;;11.30;99.90;;;;;;5154862;27;20034;-72
2023/05/29 05:37:29;;;;;;;13.48;4.22;;;11.30;99.90;;;;;;5154218;27;20095;-73
2023/05/29 05:39:54;;;;;;;15.48;4.65;;;11.50;99.90;;;;;;5154106;27;20130;-72
2023/05/29 05:42:20;;;;;;;15.10;4.88;;;11.50;99.90;;;;;;5154237;27;20554;-72
2023/05/29 05:44:46;;;;;;;13.27;4.22;;;11.60;99.90;;;;;;5154207;27;20487;-72
2023/05/29 05:47:12;;;;;;;9.50;4.70;;;11.80;99.90;;;;;;5154176;27;20042;-72
2023/05/29 05:49:38;;;;;;;10.88;3.80;;;12.00;99.90;;;;;;5154751;27;20051;-72
2023/05/29 05:52:03;;;;;;;11.45;4.68;;;12.00;99.90;;;;;;5154054;27;20118;-71
2023/05/29 05:54:29;;;;;;;12.73;4.57;;;12.00;99.90;;;;;;5135934;27;20081;-71
2023/05/29 05:56:55;;;;;;;14.02;5.05;;;12.00;99.90;;;;;;5153967;27;20042;-71
2023/05/29 05:59:20;;;;;;;10.35;4.30;;;12.10;99.90;;;;;;5135585;27;20121;-71
2023/05/29 06:01:46;;;;;;;13.27;4.78;;;12.10;99.90;;;;;;5153878;27;20471;-71
2023/05/29 06:04:12;;;;;;;12.48;5.07;;;12.30;99.90;;;;;;5118609;27;20042;-70
2023/05/29 06:06:37;;;;;;;11.95;4.90;;;12.20;99.90;;;;;;5153964;27;20051;-71
2023/05/29 06:09:04;;;;;;;13.60;5.43;;;12.40;99.90;;;;;;5135836;27;20475;-72
2023/05/29 06:11:30;;;;;;;11.13;4.70;;;12.30;99.90;;;;;;5153770;27;20043;-73
2023/05/29 06:13:56;;;;;;;9.88;4.90;;;12.40;99.90;;;;;;5154039;27;20078;-72
2023/05/29 06:16:21;;;;;;;11.93;5.25;;;12.30;99.90;;;;;;5153802;27;20070;-72
2023/05/29 06:18:47;;;;;;;12.93;4.78;;;12.20;99.90;;;;;;5153571;27;20077;-72
2023/05/29 06:21:13;;;;;;;10.20;4.50;;;12.30;99.90;;;;;;5153409;27;20082;-74
2023/05/29 06:23:41;;;;;;;10.85;4.75;;;12.40;99.90;;;;;;5153430;27;20042;-73
2023/05/29 06:26:07;;;;;;;11.98;4.72;;;12.80;99.90;;;;;;5153482;27;20099;-72
2023/05/29 06:28:33;;;;;;;12.98;4.78;;;13.30;99.90;;;;;;5153597;27;20054;-72
2023/05/29 06:30:59;;;;;;;11.07;4.97;;;13.50;99.90;;;;;;5153334;27;20042;-72
2023/05/29 06:33:25;;;;;;;14.25;5.95;;;13.70;99.90;;;;;;5152027;27;20082;-72
2023/05/29 06:35:51;;;;;;;16.80;5.25;;;13.50;99.90;;;;;;5153976;27;20062;-72
2023/05/29 06:38:17;;;;;;;11.20;4.63;;;13.60;99.90;;;;;;5135605;27;20046;-73
2023/05/29 06:40:43;;;;;;;14.15;4.85;;;13.70;99.90;;;;;;5153533;27;20155;-72
2023/05/29 06:43:11;;;;;;;14.73;5.35;;;14.20;99.90;;;;;;5154513;27;20447;-73
2023/05/29 06:45:37;;;;;;;12.68;4.30;;;14.30;99.90;;;;;;5138765;27;20082;-74
2023/05/29 06:48:03;;;;;;;15.38;4.90;;;14.50;99.90;;;;;;5157314;27;20061;-74
2023/05/29 06:50:29;;;;;;;11.05;5.65;;;14.30;99.90;;;;;;5156895;27;20514;-74
2023/05/29 06:52:54;;;;;;;19.35;5.43;;;14.30;99.90;;;;;;5156882;27;20041;-72
2023/05/29 06:55:20;;;;;;;16.63;5.57;;;14.20;99.70;;;;;;5156679;27;20043;-73
2023/05/29 06:57:46;;;;;;;16.15;4.88;;;14.20;99.60;;;;;;5138165;27;20114;-73
2023/05/29 07:00:12;;;;;;;11.52;5.53;;;14.60;99.90;;;;;;5121950;27;20038;-74
2023/05/29 07:02:38;;;;;;;15.98;5.22;;;14.70;99.90;;;;;;5156849;27;20046;-74
2023/05/29 07:05:04;;;;;;;9.88;4.65;;;14.60;99.90;;;;;;5157201;27;20043;-74
2023/05/29 07:07:29;;;;;;;12.70;4.97;;;14.80;99.90;;;;;;5156606;27;20038;-73
2023/05/29 07:09:55;;;;;;;14.88;5.22;;;14.50;99.90;;;;;;5156966;27;20527;-74
2023/05/29 07:12:22;;;;;;;10.65;4.35;;;14.60;99.90;;;;;;5138258;27;20466;-73
2023/05/29 07:14:48;;;;;;;10.55;4.43;;;14.50;99.90;;;;;;5138392;27;20046;-73
2023/05/29 07:17:15;;;;;;;10.50;4.90;;;14.40;99.90;;;;;;5137917;27;20095;-74
2023/05/29 07:19:41;;;;;;;14.43;5.05;;;14.30;99.70;;;;;;5156161;27;20516;-73
2023/05/29 07:22:07;;;;;;;10.38;4.25;;;14.30;99.90;;;;;;5156379;27;20043;-75
2023/05/29 07:24:32;;;;;;;11.07;5.22;;;14.50;99.90;;;;;;5157163;27;20084;-76
2023/05/29 07:26:58;;;;;;;10.60;4.88;;;14.60;99.70;;;;;;5137993;27;20455;-75
2023/05/29 07:29:25;;;;;;;9.98;4.75;;;14.50;99.90;;;;;;5156320;27;20071;-73
2023/05/29 07:31:51;;;;;;;13.20;4.30;;;14.40;99.90;;;;;;5156155;27;20122;-72
2023/05/29 07:34:17;;;;;;;12.20;4.50;;;14.40;99.60;;;;;;5156181;27;20043;-73
2023/05/29 07:37:02;;;;;;;13.32;5.53;;;14.40;99.60;;;;;;5156076;27;20039;-75
2023/05/29 07:39:28;;;;;;;13.73;5.97;;;14.20;99.60;;;;;;5137592;27;20050;-74
2023/05/29 07:41:54;;;;;;;14.15;5.60;;;14.00;99.90;;;;;;5155517;27;20054;-75
2023/05/29 07:44:20;;;;;;;11.27;5.65;;;13.90;99.90;;;;;;5138328;27;20125;-74
2023/05/29 07:46:46;;;;;;;14.07;5.07;;;13.90;99.90;;;;;;5138060;27;20046;-74
2023/05/29 07:49:12;;;;;;;16.25;5.18;;;14.20;99.90;;;;;;5156045;27;20073;-74
2023/05/29 07:51:38;;;;;;;13.57;5.57;;;14.80;99.90;;;;;;5156202;27;20118;-73
2023/05/29 07:54:03;;;;;;;12.65;4.72;;;15.30;99.90;;;;;;5156261;27;20039;-74
2023/05/29 07:56:30;;;;;;;12.30;4.55;;;15.70;99.80;;;;;;5155639;27;20078;-74
2023/05/29 07:58:57;;;;;;;12.13;4.75;;;15.80;99.70;;;;;;5156162;27;20042;-75
2023/05/29 08:01:23;;;;;;;13.88;6.18;;;16.10;99.70;;;;;;5156201;27;20099;-74
2023/05/29 08:03:49;;;;;;;11.93;3.80;;;16.40;97.60;;;;;;5155784;27;20043;-74
2023/05/29 08:06:14;;;;;;;16.40;5.25;;;16.30;97.70;;;;;;5137983;27;20047;-74
2023/05/29 08:08:41;;;;;;;11.65;3.78;;;16.30;97.70;;;;;;5155986;27;20046;-74
2023/05/29 08:11:06;;;;;;;13.00;4.47;;;16.60;95.90;;;;;;5155330;27;20054;-75
2023/05/29 08:13:32;;;;;;;9.98;4.63;;;16.90;96.30;;;;;;5155827;27;20047;-75
2023/05/29 08:15:58;;;;;;;9.43;4.78;;;16.80;95.60;;;;;;5155233;27;20042;-74
2023/05/29 08:18:27;;;;;;;14.93;5.50;;;16.50;96.80;;;;;;5155083;27;20111;-74
2023/05/29 08:20:52;;;;;;;11.90;4.32;;;16.00;96.90;;;;;;5155285;27;20043;-74
2023/05/29 08:23:18;;;;;;;11.98;4.07;;;16.10;97.60;;;;;;5155803;27;20122;-73
2023/05/29 08:25:45;;;;;;;18.20;5.00;;;16.10;97.40;;;;;;5155354;27;20500;-74
2023/05/29 08:28:10;;;;;;;11.98;4.00;;;16.00;97.70;;;;;;5155591;27;20050;-72
2023/05/29 08:30:37;;;;;;;9.18;3.88;;;16.20;97.30;;;;;;5155218;27;20086;-74
2023/05/29 08:33:03;;;;;;;12.52;5.35;;;16.40;98.00;;;;;;5155066;27;20118;-73
2023/05/29 08:35:29;;;;;;;9.00;4.38;;;16.10;96.40;;;;;;5086379;27;20061;-74
2023/05/29 08:37:55;;;;;;;13.13;4.43;;;16.10;97.40;;;;;;5155109;27;20061;-74
2023/05/29 08:40:21;;;;;;;11.23;4.35;;;15.90;97.30;;;;;;5136957;27;20452;-72
2023/05/29 08:42:53;;;;;;;14.50;5.07;;;15.80;97.40;;;;;;5154986;27;20061;-73
2023/05/29 08:45:22;;;;;;;9.32;4.57;;;15.50;97.80;;;;;;5154977;27;20042;-73
2023/05/29 08:47:52;;;;;;;11.88;4.80;;;15.80;98.00;;;;;;5154955;27;20094;-73
2023/05/29 08:50:20;;;;;;;13.20;4.45;;;15.60;97.40;;;;;;5154876;27;20047;-73
2023/05/29 08:52:47;;;;;;;15.70;4.88;;;15.20;97.80;;;;;;5154699;27;20101;-72
2023/05/29 08:55:13;;;;;;;11.18;4.63;;;15.30;97.70;;;;;;5155121;27;20057;-72
2023/05/29 08:57:40;;;;;;;14.82;5.45;;;15.40;98.00;;;;;;5154795;27;20042;-73
2023/05/29 09:00:18;;;;;;;15.90;6.50;;;15.50;97.50;;;;;;5136499;27;20046;-74
2023/05/29 09:02:44;;;;;;;8.10;3.80;;;15.40;98.10;;;;;;5154840;27;20035;-71
2023/05/29 09:05:10;;;;;;;15.45;4.35;;;15.10;96.90;;;;;;5154285;27;20090;-71
2023/05/29 09:07:39;;;;;;;11.23;4.38;;;15.20;97.70;;;;;;5154510;27;20129;-74
2023/05/29 09:10:06;;;;;;;11.88;4.80;;;15.10;97.60;;;;;;5154861;27;20055;-73
2023/05/29 09:12:33;;;;;;;13.27;4.75;;;15.40;98.00;;;;;;5154311;27;20167;-74
2023/05/29 09:15:00;;;;;;;10.20;4.35;;;15.40;97.50;;;;;;5154428;27;20054;-74
2023/05/29 09:17:32;;;;;;;16.52;4.60;;;15.50;98.00;;;;;;5154443;27;20050;-73
2023/05/29 09:19:58;;;;;;;16.10;5.60;;;15.30;97.20;;;;;;5154318;27;20567;-74
2023/05/29 09:22:24;;;;;;;9.80;4.05;;;15.50;97.90;;;;;;5154719;27;20087;-74
2023/05/29 09:24:50;;;;;;;9.65;4.18;;;15.60;97.60;;;;;;5154559;27;20421;-73
2023/05/29 09:27:17;;;;;;;13.77;5.13;;;15.80;97.70;;;;;;5153936;27;20460;-74
2023/05/29 09:29:45;;;;;;;14.10;4.72;;;15.80;97.20;;;;;;5154449;27;20050;-73
2023/05/29 09:32:17;;;;;;;12.32;4.85;;;15.90;97.10;;;;;;5154197;27;20034;-74
2023/05/29 09:34:44;;;;;;;12.85;5.50;;;15.90;96.70;;;;;;5154169;27;20039;-73
2023/05/29 09:37:11;;;;;;;11.95;4.72;;;15.60;96.90;;;;;;5135781;27;20043;-74
2023/05/29 09:39:47;;;;;;;11.77;4.78;;;15.80;97.40;;;;;;5154182;27;20053;-74
2023/05/29 09:42:14;;;;;;;14.60;5.05;;;15.80;96.40;;;;;;5135437;27;20524;-73
2023/05/29 09:44:41;;;;;;;10.45;4.45;;;16.10;97.20;;;;;;5154559;27;20047;-71
2023/05/29 09:47:07;;;;;;;18.30;5.70;;;15.90;97.10;;;;;;5136064;27;20051;-71
2023/05/29 09:49:33;;;;;;;13.00;6.78;;;16.30;97.10;;;;;;5154388;27;20053;-70
2023/05/29 09:51:59;;;;;;;12.43;4.15;;;16.30;95.90;;;;;;5153965;27;20043;-74
2023/05/29 09:54:30;;;;;;;9.68;3.83;;;16.50;97.10;;;;;;5154058;27;20054;-73
2023/05/29 09:56:57;;;;;;;10.18;4.28;;;16.90;96.00;;;;;;5154112;27;20046;-73
2023/05/29 09:59:24;;;;;;;11.27;4.32;;;17.00;96.30;;;;;;5153922;27;20043;-73
2023/05/29 10:02:01;;;;;;;14.27;4.45;;;17.20;96.50;;;;;;5135602;27;20430;-74
2023/05/29 10:04:27;;;;;;;10.82;4.32;;;17.40;95.60;;;;;;5154486;27;20035;-73
2023/05/29 10:06:55;;;;;;;10.85;4.10;;;17.40;95.90;;;;;;5153911;27;20101;-73
2023/05/29 10:09:23;;;;;;;12.75;4.55;;;17.40;95.90;;;;;;5153721;27;20479;-74
2023/05/29 10:11:50;;;;;;;11.35;4.40;;;16.80;94.50;;;;;;5153781;27;20185;-73
2023/05/29 10:14:19;;;;;;;8.88;3.65;;;16.40;96.40;;;;;;5153751;27;20053;-74
2023/05/29 10:16:46;;;;;;;13.20;4.50;;;16.50;96.80;;;;;;5154092;27;20046;-73
2023/05/29 10:19:15;;;;;;;13.30;4.57;;;16.40;95.90;;;;;;5139731;27;20051;-74
2023/05/29 10:21:44;;;;;;;17.30;4.65;;;16.30;96.10;;;;;;5157669;27;20042;-73
2023/05/29 10:24:11;;;;;;;8.40;3.40;;;16.10;95.90;;;;;;5158065;27;20078;-73
2023/05/29 10:26:40;;;;;;;12.95;4.18;;;16.40;96.60;;;;;;5157723;27;20061;-74
2023/05/29 10:29:23;;;;;;;11.07;4.18;;;16.80;96.10;;;;;;5139428;27;20562;-72
2023/05/29 10:32:10;;;;;;;10.52;4.55;;;16.80;96.10;;;;;;5157520;27;20082;-74
2023/05/29 10:35:12;;;;;;;8.20;3.70;;;16.70;95.10;;;;;;5139043;27;20099;-73
2023/05/29 10:37:50;;;;;;;7.88;3.63;;;17.30;94.70;;;;;;5139343;27;20050;-74
2023/05/29 10:40:26;;;;;;;11.00;3.90;;;17.30;94.50;;;;;;5157458;27;20126;-73
2023/05/29 10:42:54;;;;;;;8.73;3.53;;;17.10;94.60;;;;;;5157343;27;20054;-74
2023/05/29 10:45:29;;;;;;;9.55;4.32;;;17.00;93.70;;;;;;5157612;27;20046;-74
2023/05/29 10:47:56;;;;;;;10.43;3.50;;;17.00;94.10;;;;;;5157608;27;20117;-73
2023/05/29 10:50:38;;;;;;;13.15;3.75;;;17.10;94.70;;;;;;5157201;27;20055;-73
2023/05/29 10:53:06;;;;;;;8.43;3.28;;;16.90;94.80;;;;;;5157188;27;20042;-74
2023/05/29 10:55:37;;;;;;;12.65;3.83;;;16.90;95.10;;;;;;5156997;27;20059;-73
2023/05/29 10:58:06;;;;;;;17.02;4.65;;;16.90;95.60;;;;;;5138484;27;20156;-73
2023/05/29 11:00:32;;;;;;;11.43;3.75;;;16.80;95.00;;;;;;5157086;27;20042;-73
2023/05/29 11:03:03;;;;;;;8.45;3.92;;;16.90;95.50;;;;;;5159108;27;20068;-74
2023/05/29 11:05:29;;;;;;;10.07;3.85;;;16.90;94.90;;;;;;5140505;27;20435;-73
2023/05/29 11:08:00;;;;;;;11.85;4.05;;;16.90;94.90;;;;;;5140106;27;20035;-73
2023/05/29 11:10:47;;;;;;;12.70;4.57;;;16.70;95.30;;;;;;5157326;27;20130;-74
2023/05/29 11:13:40;;;;;;;8.05;4.60;;;16.60;95.10;;;;;;5156669;27;20082;-73
2023/05/29 11:16:13;;;;;;;;;;;16.80;95.10;;;;;;5153132;27;20061;-73
2023/05/29 11:18:47;;;;;;;7.18;3.92;;;16.70;95.20;;;;;;5157156;27;19922;-72
2023/05/29 11:21:25;;;;;;;8.60;4.03;;;16.90;95.00;;;;;;5156770;27;20364;-73
2023/05/29 11:23:52;;;;;;;12.20;4.13;;;16.80;94.40;;;;;;5121701;27;20049;-73
2023/05/29 11:26:20;;;;;;;8.77;3.80;;;16.50;94.40;;;;;;5156354;27;20042;-73
2023/05/29 11:28:46;;;;;;;10.35;4.28;;;16.30;94.30;;;;;;5137082;27;20046;-73
2023/05/29 11:31:13;;;;;;;14.15;4.47;;;16.40;95.00;;;;;;5156173;27;20527;-74
2023/05/29 11:33:49;;;;;;;6.57;3.72;;;16.50;95.30;;;;;;5156676;27;20057;-73
2023/05/29 11:36:14;;;;;;;10.15;4.80;;;16.60;95.30;;;;;;5156779;27;20042;-74
2023/05/29 11:38:40;;;;;;;10.60;4.05;;;16.70;94.80;;;;;;5137597;27;20053;-74
2023/05/29 11:41:06;;;;;;;7.25;3.97;;;16.40;94.80;;;;;;5155589;27;20046;-74
2023/05/29 11:43:32;;;;;;;14.65;4.88;;;16.50;95.10;;;;;;5155604;27;20062;-74
2023/05/29 11:45:58;;;;;;;12.32;4.72;;;16.30;95.60;;;;;;5156144;27;20064;-73
2023/05/29 11:48:24;;;;;;;11.02;3.45;;;16.10;95.70;;;;;;5156388;27;20444;-74
2023/05/29 11:50:50;;;;;;;15.93;4.68;;;16.10;96.00;;;;;;5156684;27;20075;-74
2023/05/29 11:53:15;;;;;;;16.38;4.95;;;16.00;96.00;;;;;;5155903;27;20471;-73
2023/05/29 11:55:41;;;;;;;16.80;4.53;;;16.20;95.80;;;;;;5137543;27;20530;-74
2023/05/29 11:58:07;;;;;;;14.45;4.85;;;16.30;95.30;;;;;;5120267;27;20089;-74
2023/05/29 12:00:39;;;;;;;8.73;4.75;;;16.40;95.40;;;;;;5155811;27;20047;-73
2023/05/29 12:03:06;;;;;;;13.87;4.93;;;16.70;95.70;;;;;;5156433;27;20066;-74
2023/05/29 12:05:45;;;;;;;13.85;4.80;;;16.60;95.40;;;;;;5156019;27;20080;-73
2023/05/29 12:08:11;;;;;;;9.05;4.57;;;16.40;94.70;;;;;;5156024;27;20047;-73
2023/05/29 12:10:37;;;;;;;10.05;3.97;;;16.30;95.20;;;;;;5137195;27;20105;-75
2023/05/29 12:13:03;;;;;;;12.38;5.28;;;16.60;95.20;;;;;;5155106;27;20039;-73
2023/05/29 12:15:29;;;;;;;11.48;4.45;;;16.90;94.80;;;;;;5155511;27;20073;-75
2023/05/29 12:17:55;;;;;;;15.98;5.30;;;16.90;95.10;;;;;;5155984;27;20046;-73
2023/05/29 12:20:28;;;;;;;11.20;4.70;;;16.60;95.10;;;;;;5155381;27;20082;-74
2023/05/29 12:23:01;;;;;;;12.70;4.50;;;16.50;95.50;;;;;;5137021;27;20450;-73
2023/05/29 12:25:26;;;;;;;;;;;16.50;95.00;;;;;;5156330;27;20038;-74
2023/05/29 12:27:56;;;;;;;7.88;3.97;;;16.40;95.30;;;;;;5137530;27;20390;-74
2023/05/29 12:30:22;;;;;;;10.43;4.38;;;16.20;95.10;;;;;;5155822;27;20383;-74
2023/05/29 12:32:51;;;;;;;10.88;4.32;;;16.30;95.10;;;;;;5155032;27;20042;-74
2023/05/29 12:35:18;;;;;;;10.55;3.60;;;16.40;94.80;;;;;;5155231;27;20043;-73
2023/05/29 12:38:01;;;;;;;11.98;4.55;;;16.70;94.40;;;;;;5155041;27;20078;-74
2023/05/29 12:40:36;;;;;;;10.52;4.93;;;16.50;94.30;;;;;;5154381;27;20047;-74
2023/05/29 12:43:05;;;;;;;8.68;4.90;;;16.30;94.50;;;;;;5120453;27;20043;-74
2023/05/29 12:45:32;;;;;;;9.68;4.03;;;16.40;95.30;;;;;;5155658;27;20053;-73